createdAt,value
2019-05-26T00:01:46.691Z,1.30
2019-05-26T00:04:20.036Z,2.00
2019-05-26T00:06:53.346Z,1.67
2019-05-26T00:09:26.747Z,1.67
2019-05-26T00:12:00.060Z,1.70
2019-05-26T00:14:35.274Z,1.55
2019-05-26T00:17:08.777Z,2.10
2019-05-26T00:19:42.091Z,1.62
2019-05-26T00:22:16.622Z,1.70
2019-05-26T00:24:49.911Z,1.80
2019-05-26T00:27:23.233Z,1.72
2019-05-26T00:29:56.678Z,2.20
2019-05-26T00:32:30.131Z,1.40
2019-05-26T00:35:05.856Z,1.82
2019-05-26T00:37:49.177Z,1.80
2019-05-26T00:40:16.645Z,1.60
2019-05-26T00:42:50.010Z,1.70
2019-05-26T00:45:23.314Z,1.75
2019-05-26T00:47:56.646Z,1.80
2019-05-26T00:50:29.947Z,1.90
2019-05-26T00:53:03.284Z,1.80
2019-05-26T00:55:36.587Z,2.35
2019-05-26T00:58:09.902Z,1.87
2019-05-26T01:00:43.517Z,2.10
2019-05-26T01:03:16.845Z,2.45
2019-05-26T01:05:50.199Z,2.10
2019-05-26T01:08:23.512Z,2.30
2019-05-26T01:10:56.851Z,1.95
2019-05-26T01:13:30.173Z,1.87
2019-05-26T01:16:03.521Z,2.50
2019-05-26T01:18:36.888Z,2.02
2019-05-26T01:21:10.347Z,2.42
2019-05-26T01:23:43.769Z,3.25
2019-05-26T01:26:17.094Z,3.00
2019-05-26T01:28:50.436Z,2.87
2019-05-26T01:31:23.726Z,3.10
2019-05-26T01:33:57.061Z,2.90
2019-05-26T01:36:30.362Z,4.10
2019-05-26T01:39:06.235Z,3.52
2019-05-26T01:41:39.536Z,3.70
2019-05-26T01:44:12.863Z,3.92
2019-05-26T01:46:46.162Z,3.37
2019-05-26T01:49:21.080Z,5.30
2019-05-26T01:51:54.389Z,4.70
2019-05-26T01:54:27.737Z,4.35
2019-05-26T01:57:01.136Z,5.33
2019-05-26T01:59:34.569Z,5.25
2019-05-26T02:02:08.932Z,6.23
2019-05-26T02:04:42.268Z,4.92
2019-05-26T02:07:16.649Z,5.53
2019-05-26T02:09:51.623Z,7.28
2019-05-26T02:12:24.996Z,5.87
2019-05-26T02:14:58.378Z,6.40
2019-05-26T02:17:31.684Z,5.72
2019-05-26T02:20:05.251Z,6.00
2019-05-26T02:22:38.580Z,6.65
2019-05-26T02:25:11.906Z,6.25
2019-05-26T02:27:45.253Z,7.70
2019-05-26T02:30:18.573Z,6.53
2019-05-26T02:32:51.980Z,6.62
2019-05-26T02:35:25.293Z,6.42
2019-05-26T02:37:58.622Z,6.97
2019-05-26T02:40:31.933Z,6.62
2019-05-26T02:43:05.270Z,6.53
2019-05-26T02:45:38.569Z,7.05
2019-05-26T02:48:11.713Z,7.05
2019-05-26T02:50:45.026Z,6.95
2019-05-26T02:53:18.374Z,7.58
2019-05-26T02:55:51.739Z,9.00
2019-05-26T02:58:25.065Z,8.10
2019-05-26T03:00:59.962Z,6.70
2019-05-26T03:03:33.267Z,8.15
2019-05-26T03:06:08.197Z,7.05
2019-05-26T03:08:41.893Z,9.20
2019-05-26T03:11:15.246Z,8.10
2019-05-26T03:13:48.572Z,9.55
2019-05-26T03:16:21.921Z,7.78
2019-05-26T03:18:55.218Z,7.85
2019-05-26T03:21:28.551Z,9.73
2019-05-26T03:24:05.034Z,8.00
2019-05-26T03:26:38.501Z,7.45
2019-05-26T03:29:11.819Z,8.23
2019-05-26T03:31:45.182Z,7.37
2019-05-26T03:34:18.484Z,10.00
2019-05-26T03:36:51.864Z,8.20
2019-05-26T03:39:42.695Z,7.60
2019-05-26T03:42:00.196Z,8.28
2019-05-26T03:44:33.487Z,7.53
2019-05-26T03:47:06.824Z,9.75
2019-05-26T03:49:41.769Z,7.83
2019-05-26T03:52:15.100Z,8.68
2019-05-26T03:54:49.530Z,8.00
2019-05-26T03:57:22.943Z,7.87
2019-05-26T03:59:56.291Z,9.83
2019-05-26T04:02:29.803Z,8.18
2019-05-26T04:05:05.272Z,9.40
2019-05-26T04:07:38.576Z,8.68
2019-05-26T04:10:11.889Z,8.15
2019-05-26T04:12:46.309Z,8.60
2019-05-26T04:15:19.640Z,8.55
2019-05-26T04:17:53.497Z,8.23
2019-05-26T04:20:26.811Z,10.85
2019-05-26T04:23:00.152Z,8.53
2019-05-26T04:25:34.648Z,8.53
2019-05-26T04:28:08.013Z,10.85
2019-05-26T04:30:41.342Z,8.13
2019-05-26T04:33:14.903Z,10.60
2019-05-26T04:35:48.332Z,9.35
2019-05-26T04:38:21.708Z,8.33
2019-05-26T04:40:55.045Z,10.10
2019-05-26T04:43:28.644Z,8.45
2019-05-26T04:46:01.931Z,8.60
2019-05-26T04:48:35.312Z,7.60
2019-05-26T04:51:08.664Z,7.55
2019-05-26T04:53:42.047Z,9.35
2019-05-26T04:56:15.387Z,9.80
2019-05-26T04:58:48.804Z,8.03
2019-05-26T05:01:23.138Z,10.03
2019-05-26T05:03:56.710Z,8.23
2019-05-26T05:06:30.039Z,6.55
2019-05-26T05:09:06.006Z,9.10
2019-05-26T05:11:39.376Z,7.70
2019-05-26T05:14:12.763Z,7.53
2019-05-26T05:16:46.087Z,7.20
2019-05-26T05:19:19.413Z,6.70
2019-05-26T05:21:52.751Z,7.45
2019-05-26T05:24:26.461Z,6.80
2019-05-26T05:26:59.795Z,7.58
2019-05-26T05:29:33.168Z,8.53
2019-05-26T05:32:06.305Z,6.80
2019-05-26T05:34:40.624Z,6.45
2019-05-26T05:37:13.931Z,8.65
2019-05-26T05:39:47.643Z,7.37
2019-05-26T05:42:21.064Z,7.40
2019-05-26T05:44:55.481Z,7.00
2019-05-26T05:47:28.961Z,6.42
2019-05-26T05:50:03.913Z,8.05
2019-05-26T05:52:37.232Z,5.90
2019-05-26T05:55:10.635Z,7.13
2019-05-26T05:57:44.205Z,6.55
2019-05-26T06:00:17.556Z,5.58
2019-05-26T06:02:50.938Z,6.95
2019-05-26T06:05:24.376Z,7.75
2019-05-26T06:07:57.683Z,6.72
2019-05-26T06:10:31.067Z,6.53
2019-05-26T06:13:04.360Z,6.40
2019-05-26T06:15:37.786Z,6.20
2019-05-26T06:18:11.107Z,8.10
2019-05-26T06:20:44.453Z,7.83
2019-05-26T06:23:17.773Z,6.30
2019-05-26T06:25:51.114Z,6.28
2019-05-26T06:28:24.731Z,6.60
2019-05-26T06:30:58.077Z,6.45
2019-05-26T06:33:31.428Z,5.87
2019-05-26T06:36:04.764Z,6.42
2019-05-26T06:38:38.174Z,5.70
2019-05-26T06:41:11.520Z,5.85
2019-05-26T06:43:45.063Z,6.12
2019-05-26T06:46:18.391Z,5.30
2019-05-26T06:48:51.686Z,5.20
2019-05-26T06:51:25.353Z,5.97
2019-05-26T06:53:58.749Z,5.30
2019-05-26T06:56:32.078Z,5.75
2019-05-26T06:59:05.392Z,6.28
2019-05-26T07:01:38.747Z,4.92
2019-05-26T07:04:12.626Z,6.20
2019-05-26T07:06:45.976Z,5.17
2019-05-26T07:09:19.279Z,5.08
2019-05-26T07:11:59.081Z,5.47
2019-05-26T07:14:28.691Z,4.72
2019-05-26T07:17:02.046Z,5.47
2019-05-26T07:19:35.350Z,4.90
2019-05-26T07:22:08.689Z,3.87
2019-05-26T07:24:41.990Z,6.12
2019-05-26T07:27:15.156Z,6.12
2019-05-26T07:29:48.508Z,7.58
2019-05-26T07:32:21.844Z,7.55
2019-05-26T07:34:55.391Z,7.97
2019-05-26T07:37:28.742Z,9.80
2019-05-26T07:40:02.067Z,9.60
2019-05-26T07:42:35.420Z,7.97
2019-05-26T07:45:10.406Z,8.63
2019-05-26T07:47:43.754Z,8.68
2019-05-26T07:50:17.143Z,7.47
2019-05-26T07:52:50.482Z,8.05
2019-05-26T07:55:23.817Z,8.88
2019-05-26T07:57:57.246Z,12.65
2019-05-26T08:00:30.578Z,10.10
2019-05-26T08:03:03.945Z,9.88
2019-05-26T08:05:37.241Z,13.75
2019-05-26T08:08:13.611Z,10.05
2019-05-26T08:10:47.158Z,12.98
2019-05-26T08:13:20.497Z,10.68
2019-05-26T08:15:53.820Z,10.80
2019-05-26T08:18:28.281Z,10.80
2019-05-26T08:21:01.580Z,10.48
2019-05-26T08:23:34.928Z,10.20
2019-05-26T08:26:08.249Z,10.50
2019-05-26T08:28:41.607Z,10.50
2019-05-26T08:31:15.098Z,10.82
2019-05-26T08:33:48.445Z,14.55
2019-05-26T08:36:21.771Z,11.05
2019-05-26T08:38:55.104Z,11.35
2019-05-26T08:41:28.426Z,10.32
2019-05-26T08:44:01.775Z,10.63
2019-05-26T08:46:35.098Z,11.18
2019-05-26T08:49:08.481Z,10.28
2019-05-26T08:51:41.824Z,10.70
2019-05-26T08:54:15.205Z,10.08
2019-05-26T08:56:48.521Z,10.75
2019-05-26T08:59:22.135Z,10.48
2019-05-26T09:01:56.251Z,13.57
2019-05-26T09:04:29.614Z,10.58
2019-05-26T09:07:02.924Z,13.68
2019-05-26T09:09:36.434Z,10.78
2019-05-26T09:12:09.749Z,9.55
2019-05-26T09:14:43.098Z,10.60
2019-05-26T09:17:16.418Z,10.25
2019-05-26T09:19:49.757Z,9.23
2019-05-26T09:22:23.077Z,7.90
2019-05-26T09:24:56.427Z,8.35
2019-05-26T09:27:29.729Z,8.80
2019-05-26T09:30:06.548Z,7.58
2019-05-26T09:32:39.879Z,7.90
2019-05-26T09:35:14.346Z,9.87
2019-05-26T09:37:49.327Z,7.83
2019-05-26T09:40:22.662Z,8.43
2019-05-26T09:42:55.991Z,9.15
2019-05-26T09:45:29.517Z,7.42
2019-05-26T09:48:04.448Z,10.72
2019-05-26T09:50:37.823Z,8.33
2019-05-26T09:53:11.123Z,7.60
2019-05-26T09:55:44.475Z,11.05
2019-05-26T09:58:17.796Z,8.45
2019-05-26T10:00:51.145Z,10.68
2019-05-26T10:03:24.446Z,9.50
2019-05-26T10:05:57.798Z,8.98
2019-05-26T10:08:31.129Z,9.68
2019-05-26T10:11:04.508Z,6.97
2019-05-26T10:13:37.905Z,7.12
2019-05-26T10:16:11.489Z,6.97
2019-05-26T10:18:44.840Z,7.03
2019-05-26T10:21:18.188Z,5.40
2019-05-26T10:23:53.236Z,6.70
2019-05-26T10:26:26.533Z,5.40
2019-05-26T10:29:00.862Z,4.60
2019-05-26T10:31:34.473Z,4.80
2019-05-26T10:34:07.802Z,4.90
2019-05-26T10:36:41.148Z,5.30
2019-05-26T10:39:15.628Z,4.50
2019-05-26T10:41:48.975Z,4.62
2019-05-26T10:44:22.288Z,4.42
2019-05-26T10:46:57.179Z,4.60
2019-05-26T10:49:30.488Z,4.65
2019-05-26T10:52:03.999Z,4.17
2019-05-26T10:54:38.601Z,3.98
2019-05-26T10:57:11.928Z,4.05
2019-05-26T10:59:45.228Z,3.72
2019-05-26T11:02:18.556Z,3.70
2019-05-26T11:04:51.877Z,3.70
2019-05-26T11:07:26.967Z,3.00
2019-05-26T11:10:00.610Z,3.72
2019-05-26T11:12:33.979Z,3.22
2019-05-26T11:15:07.780Z,3.37
2019-05-26T11:17:41.318Z,3.62
2019-05-26T11:20:14.613Z,3.30
2019-05-26T11:22:47.971Z,3.50
2019-05-26T11:25:21.349Z,2.98
2019-05-26T11:27:54.733Z,3.47
2019-05-26T11:30:28.150Z,4.03
2019-05-26T11:33:01.496Z,3.45
2019-05-26T11:35:35.123Z,2.80
2019-05-26T11:38:08.478Z,2.75
2019-05-26T11:40:41.794Z,2.47
2019-05-26T11:43:17.110Z,3.07
2019-05-26T11:45:51.868Z,2.40
2019-05-26T11:48:25.248Z,2.70
2019-05-26T11:50:58.558Z,2.47
2019-05-26T11:53:31.885Z,2.58
2019-05-26T11:56:05.198Z,2.65
2019-05-26T11:58:38.511Z,2.33
2019-05-26T12:01:11.813Z,2.45
2019-05-26T12:03:46.760Z,2.25
2019-05-26T12:06:20.081Z,2.15
2019-05-26T12:08:53.435Z,2.12
2019-05-26T12:11:26.828Z,1.82
2019-05-26T12:14:01.291Z,2.87
2019-05-26T12:16:34.748Z,2.37
2019-05-26T12:19:07.893Z,1.92
2019-05-26T12:21:41.228Z,1.92
2019-05-26T12:24:14.534Z,2.05
2019-05-26T12:26:47.924Z,1.95
2019-05-26T12:29:21.244Z,1.80
2019-05-26T12:31:54.615Z,2.10
2019-05-26T12:34:27.928Z,1.87
2019-05-26T12:37:02.147Z,2.10
2019-05-26T12:39:35.459Z,1.87
2019-05-26T12:42:09.045Z,1.85
2019-05-26T12:44:49.502Z,2.20
2019-05-26T12:47:17.444Z,1.87
2019-05-26T12:49:50.761Z,1.60
2019-05-26T12:52:24.590Z,1.87
2019-05-26T12:54:57.918Z,2.00
2019-05-26T12:57:31.372Z,1.60
2019-05-26T13:00:09.243Z,1.50
2019-05-26T13:02:42.609Z,1.87
2019-05-26T13:05:16.484Z,1.70
2019-05-26T13:07:49.831Z,1.57
2019-05-26T13:10:23.409Z,1.70
2019-05-26T13:12:56.762Z,1.30
2019-05-26T13:15:30.067Z,1.60
2019-05-26T13:18:03.490Z,1.85
2019-05-26T13:20:36.794Z,1.80
2019-05-26T13:23:11.361Z,1.47
2019-05-26T13:25:44.665Z,1.42
2019-05-26T13:28:18.274Z,1.70
2019-05-26T13:30:51.588Z,1.65
2019-05-26T13:33:24.965Z,1.32
2019-05-26T13:35:58.708Z,1.40
2019-05-26T13:38:33.696Z,1.40
2019-05-26T13:41:07.399Z,1.65
2019-05-26T13:43:40.721Z,1.40
2019-05-26T13:46:15.246Z,1.45
2019-05-26T13:48:48.622Z,1.20
2019-05-26T13:51:21.960Z,1.62
2019-05-26T13:53:55.308Z,1.05
2019-05-26T13:56:28.623Z,1.20
2019-05-26T13:59:01.920Z,1.55
2019-05-26T14:01:35.321Z,1.30
2019-05-26T14:04:08.724Z,1.33
2019-05-26T14:06:42.091Z,1.00
2019-05-26T14:09:15.432Z,1.30
2019-05-26T14:11:49.008Z,1.42
2019-05-26T14:14:22.486Z,1.22
2019-05-26T14:16:55.832Z,1.07
2019-05-26T14:19:29.365Z,1.35
2019-05-26T14:22:02.719Z,1.22
2019-05-26T14:24:36.036Z,1.10
2019-05-26T14:27:09.433Z,1.27
2019-05-26T14:29:44.486Z,0.95
2019-05-26T14:32:17.822Z,1.00
2019-05-26T14:34:51.117Z,1.10
2019-05-26T14:37:24.464Z,1.10
2019-05-26T14:39:57.776Z,1.00
2019-05-26T14:42:31.149Z,1.25
2019-05-26T14:45:06.083Z,1.27
2019-05-26T14:47:39.438Z,0.90
2019-05-26T14:50:12.740Z,0.40
2019-05-26T14:52:46.189Z,0.82
2019-05-26T14:55:19.501Z,0.60
2019-05-26T14:57:52.861Z,0.50
2019-05-26T15:00:26.203Z,0.45
2019-05-26T15:02:59.682Z,0.55
2019-05-26T15:05:32.842Z,0.40
2019-05-26T15:08:06.221Z,0.70
2019-05-26T15:10:39.534Z,0.78
2019-05-26T15:13:12.899Z,0.78
2019-05-26T15:15:46.227Z,1.20
2019-05-26T15:18:19.389Z,0.70
2019-05-26T15:20:55.876Z,1.30
2019-05-26T15:23:27.756Z,0.65
2019-05-26T15:26:01.111Z,0.80
2019-05-26T15:28:34.562Z,0.70
2019-05-26T15:31:10.090Z,0.90
2019-05-26T15:33:42.979Z,0.95
2019-05-26T15:36:16.321Z,1.00
2019-05-26T15:38:49.656Z,1.10
2019-05-26T15:41:23.138Z,1.30
2019-05-26T15:43:56.947Z,1.20
2019-05-26T15:46:30.275Z,1.20
2019-05-26T15:49:03.619Z,1.05
2019-05-26T15:51:36.963Z,1.60
2019-05-26T15:54:10.421Z,1.50
2019-05-26T15:56:43.761Z,1.45
2019-05-26T15:59:17.164Z,1.45
2019-05-26T16:01:50.507Z,1.80
2019-05-26T16:04:23.834Z,1.37
2019-05-26T16:06:57.141Z,1.45
2019-05-26T16:09:30.573Z,1.90
2019-05-26T16:12:04.111Z,1.67
2019-05-26T16:14:38.625Z,1.50
2019-05-26T16:17:12.010Z,1.57
2019-05-26T16:19:45.369Z,1.65
2019-05-26T16:22:18.709Z,2.02
2019-05-26T16:24:52.060Z,1.40
2019-05-26T16:27:25.391Z,1.90
2019-05-26T16:29:58.736Z,2.12
2019-05-26T16:32:32.069Z,1.47
2019-05-26T16:35:05.526Z,1.40
2019-05-26T16:37:38.869Z,1.50
2019-05-26T16:40:12.184Z,1.57
2019-05-26T16:42:45.484Z,1.80
2019-05-26T16:45:21.119Z,1.80
2019-05-26T16:47:54.539Z,1.35
2019-05-26T16:50:28.362Z,1.55
2019-05-26T16:53:01.936Z,1.50
2019-05-26T16:55:35.253Z,1.47
2019-05-26T16:58:09.720Z,1.75
2019-05-26T17:00:43.253Z,1.50
2019-05-26T17:03:16.575Z,1.47
2019-05-26T17:05:50.089Z,1.17
2019-05-26T17:08:23.406Z,1.30
2019-05-26T17:10:56.750Z,1.65
2019-05-26T17:13:32.963Z,1.52
2019-05-26T17:16:05.112Z,1.32
2019-05-26T17:18:38.428Z,1.20
2019-05-26T17:21:11.771Z,1.40
2019-05-26T17:23:46.161Z,1.32
2019-05-26T17:26:19.527Z,0.95
2019-05-26T17:28:52.838Z,1.37
2019-05-26T17:31:26.172Z,1.82
2019-05-26T17:33:59.500Z,1.20
2019-05-26T17:36:32.915Z,1.30
2019-05-26T17:39:07.662Z,1.20
2019-05-26T17:41:41.034Z,1.17
2019-05-26T17:44:14.366Z,1.55
2019-05-26T17:46:47.743Z,1.50
2019-05-26T17:49:21.061Z,1.12
2019-05-26T17:51:54.424Z,1.10
2019-05-26T17:54:27.755Z,1.10
2019-05-26T17:57:01.102Z,1.12
2019-05-26T17:59:34.423Z,1.30
2019-05-26T18:02:07.776Z,1.50
2019-05-26T18:04:41.171Z,1.57
2019-05-26T18:07:14.668Z,1.50
2019-05-26T18:09:48.469Z,0.93
2019-05-26T18:12:24.990Z,1.07
2019-05-26T18:15:00.116Z,1.37
2019-05-26T18:17:46.234Z,1.30
2019-05-26T18:20:08.573Z,1.80
2019-05-26T18:22:41.948Z,1.45
2019-05-26T18:25:16.405Z,1.15
2019-05-26T18:27:49.837Z,1.43
2019-05-26T18:30:23.223Z,1.12
2019-05-26T18:32:56.655Z,1.10
2019-05-26T18:35:29.969Z,0.90
2019-05-26T18:38:03.413Z,0.95
2019-05-26T18:40:36.757Z,1.07
2019-05-26T18:43:10.111Z,1.00
2019-05-26T18:45:43.448Z,1.15
2019-05-26T18:48:16.836Z,1.10
2019-05-26T18:50:50.149Z,1.20
2019-05-26T18:53:23.583Z,1.05
2019-05-26T18:55:56.890Z,1.22
2019-05-26T18:58:30.279Z,1.22
2019-05-26T19:01:03.610Z,1.00
2019-05-26T19:03:37.025Z,1.25
2019-05-26T19:06:10.399Z,1.35
2019-05-26T19:08:44.705Z,1.12
2019-05-26T19:11:18.417Z,1.00
2019-05-26T19:13:51.752Z,1.00
2019-05-26T19:16:25.125Z,1.20
2019-05-26T19:18:58.449Z,1.05
2019-05-26T19:21:32.010Z,1.00
2019-05-26T19:24:05.500Z,0.88
2019-05-26T19:26:38.941Z,0.98
2019-05-26T19:29:12.259Z,1.17
2019-05-26T19:31:45.639Z,1.00
2019-05-26T19:34:18.949Z,0.90
2019-05-26T19:36:52.335Z,1.32
2019-05-26T19:39:25.895Z,1.00
2019-05-26T19:41:59.409Z,1.00
2019-05-26T19:44:32.854Z,0.78
2019-05-26T19:47:06.296Z,0.95
2019-05-26T19:49:39.606Z,1.07
2019-05-26T19:52:12.973Z,1.10
2019-05-26T19:54:46.347Z,1.17
2019-05-26T19:57:19.709Z,1.10
2019-05-26T19:59:53.018Z,0.98
2019-05-26T20:02:26.372Z,0.95
2019-05-26T20:04:59.667Z,1.10
2019-05-26T20:07:34.565Z,0.90
2019-05-26T20:10:07.936Z,1.07
2019-05-26T20:12:41.290Z,0.80
2019-05-26T20:15:16.308Z,1.20
2019-05-26T20:17:49.889Z,1.40
2019-05-26T20:20:23.200Z,1.25
2019-05-26T20:22:56.565Z,1.30
2019-05-26T20:25:29.877Z,1.02
2019-05-26T20:28:03.287Z,1.10
2019-05-26T20:30:36.574Z,1.57
2019-05-26T20:33:10.190Z,1.35
2019-05-26T20:35:43.512Z,1.12
2019-05-26T20:38:16.859Z,1.70
2019-05-26T20:40:50.209Z,1.40
2019-05-26T20:43:25.138Z,1.45
2019-05-26T20:45:59.628Z,1.27
2019-05-26T20:48:32.979Z,1.00
2019-05-26T20:51:06.446Z,1.70
2019-05-26T20:53:40.605Z,1.30
2019-05-26T20:56:15.765Z,1.35
2019-05-26T20:58:49.116Z,1.60
2019-05-26T21:01:22.459Z,1.15
2019-05-26T21:03:56.462Z,1.35
2019-05-26T21:06:29.980Z,1.57
2019-05-26T21:09:05.312Z,1.50
2019-05-26T21:11:38.973Z,1.87
2019-05-26T21:14:13.482Z,1.82
2019-05-26T21:16:46.950Z,1.32
2019-05-26T21:19:20.542Z,1.53
2019-05-26T21:21:54.024Z,1.50
2019-05-26T21:24:27.432Z,1.65
2019-05-26T21:27:01.947Z,1.65
2019-05-26T21:29:35.282Z,1.70
2019-05-26T21:32:08.612Z,1.85
2019-05-26T21:34:42.138Z,2.05
2019-05-26T21:37:15.737Z,1.70
2019-05-26T21:39:49.102Z,2.00
2019-05-26T21:42:22.407Z,1.70
2019-05-26T21:44:55.948Z,2.12
2019-05-26T21:47:29.248Z,1.80
2019-05-26T21:50:03.079Z,1.70
2019-05-26T21:52:36.601Z,1.82
2019-05-26T21:55:11.579Z,1.50
2019-05-26T21:57:44.928Z,1.85
2019-05-26T22:00:20.403Z,2.20
2019-05-26T22:02:54.982Z,1.52
2019-05-26T22:05:28.327Z,1.50
2019-05-26T22:08:01.642Z,1.60
2019-05-26T22:10:35.061Z,1.62
2019-05-26T22:13:08.418Z,2.00
2019-05-26T22:15:41.724Z,1.52
2019-05-26T22:18:15.077Z,1.67
2019-05-26T22:20:48.574Z,1.70
2019-05-26T22:23:21.930Z,1.80
2019-05-26T22:25:55.210Z,1.82
2019-05-26T22:28:28.534Z,1.40
2019-05-26T22:31:01.855Z,1.32
2019-05-26T22:33:35.210Z,1.25
2019-05-26T22:36:08.555Z,1.50
2019-05-26T22:38:41.916Z,1.80
2019-05-26T22:41:15.227Z,1.40
2019-05-26T22:43:48.625Z,1.22
2019-05-26T22:46:22.228Z,1.00
2019-05-26T22:48:55.553Z,1.30
2019-05-26T22:51:28.885Z,1.37
2019-05-26T22:54:02.260Z,1.50
2019-05-26T22:56:35.574Z,1.35
2019-05-26T22:59:08.968Z,1.40
2019-05-26T23:01:42.502Z,1.00
2019-05-26T23:04:15.838Z,1.20
2019-05-26T23:06:49.345Z,1.50
2019-05-26T23:09:22.802Z,1.00
2019-05-26T23:11:56.098Z,1.00
2019-05-26T23:14:29.499Z,1.07
2019-05-26T23:17:02.821Z,0.93
2019-05-26T23:19:36.154Z,1.02
2019-05-26T23:22:09.481Z,1.05
2019-05-26T23:24:42.817Z,1.20
2019-05-26T23:27:16.108Z,0.93
2019-05-26T23:29:49.457Z,1.00
2019-05-26T23:32:23.296Z,1.00
2019-05-26T23:34:56.636Z,1.00
2019-05-26T23:37:29.951Z,1.10
2019-05-26T23:40:05.331Z,0.70
2019-05-26T23:42:40.310Z,1.32
2019-05-26T23:45:13.608Z,1.00
2019-05-26T23:47:46.929Z,1.12
2019-05-26T23:50:20.298Z,1.20
2019-05-26T23:52:53.622Z,0.93
2019-05-26T23:55:27.035Z,0.98
2019-05-26T23:58:00.415Z,1.02
